Weather reports worldwide

Advertisment
Santon Downham, United Kingdom (99118): temperature & dewpoint: 06.11.2019 05:00:00 - 12.11.2019 05:00:00 (GMT)Santon Downham, United Kingdom (99118): temperature -20cm & temperature -100cm: 06.11.2019 05:00:00 - 12.11.2019 05:00:00 (GMT)Santon Downham, United Kingdom (99118): precipitation: 06.11.2019 05:00:00 - 12.11.2019 05:00:00 (GMT)
Date & Time tt [°C] td [°C] tt -20cm [°C] tt -100cm [°C] rr [mm]
12.11.2019 05:00:00 3,9 1,7 - - 0,0
12.11.2019 04:00:00 3,4 1,6 - - 0,0
12.11.2019 03:00:00 3,3 1,4 - - 0,0
12.11.2019 02:00:00 3,7 1,6 - - 0,0
12.11.2019 01:00:00 3,4 1,5 - - 0,0
12.11.2019 00:00:00 3,6 1,6 - - 0,0
11.11.2019 23:00:00 4,2 1,9 - - 0,0
11.11.2019 22:00:00 4,5 2,3 - - 0,0
11.11.2019 21:00:00 5,7 3,2 - - 0,0
11.11.2019 20:00:00 5,8 3,9 - - 0,0
11.11.2019 19:00:00 6,0 4,6 - - 1,6
11.11.2019 18:00:00 6,2 4,1 - - 0,6
11.11.2019 17:00:00 6,8 3,1 - - 0,0
11.11.2019 16:00:00 7,2 3,9 - - 0,2
11.11.2019 15:00:00 8,1 3,5 - - 0,0
11.11.2019 14:00:00 7,9 4,4 - - 0,0
11.11.2019 13:00:00 7,2 4,6 - - 0,0
11.11.2019 12:00:00 7,2 5,3 - - 0,2
11.11.2019 11:00:00 6,3 5,1 - - 0,0
11.11.2019 10:00:00 6,2 5,2 - - 0,6
11.11.2019 09:00:00 6,6 5,8 7,9 10,5 0,6
11.11.2019 08:00:00 7,0 6,4 - - 0,6
11.11.2019 07:00:00 7,1 6,4 - - 1,6
11.11.2019 06:00:00 6,7 6,3 - - 1,4
11.11.2019 05:00:00 5,6 5,3 - - 1,6
11.11.2019 04:00:00 5,3 4,8 - - 1,2
11.11.2019 03:00:00 5,7 4,9 - - 0,4
11.11.2019 02:00:00 3,9 3,7 - - 0,0
11.11.2019 01:00:00 2,6 2,4 - - 0,0
11.11.2019 00:00:00 2,1 1,9 - - 0,0
10.11.2019 23:00:00 2,0 1,7 - - 0,0
10.11.2019 22:00:00 2,0 1,7 - - 0,0
10.11.2019 21:00:00 1,7 1,3 - - 0,0
10.11.2019 20:00:00 2,2 1,8 - - 0,0
10.11.2019 19:00:00 2,5 1,6 - - 0,0
10.11.2019 18:00:00 4,4 3,2 - - 0,0
10.11.2019 17:00:00 6,8 5,4 - - 0,0
10.11.2019 16:00:00 8,0 5,6 - - 0,0
10.11.2019 15:00:00 9,3 5,8 - - 0,0
10.11.2019 14:00:00 10,4 5,6 - - 0,0
10.11.2019 13:00:00 10,1 5,5 - - 0,0
10.11.2019 12:00:00 10,9 5,1 - - 0,0
10.11.2019 11:00:00 10,4 6,0 - - 0,0
10.11.2019 10:00:00 6,4 4,0 - - 0,0
10.11.2019 09:00:00 2,7 2,3 7,9 10,7 0,0
10.11.2019 08:00:00 -1,4 -1,9 - - 0,0
10.11.2019 07:00:00 -1,3 -1,9 - - 0,0
10.11.2019 06:00:00 -0,1 -0,7 - - 0,0
10.11.2019 05:00:00 1,1 0,1 - - 0,0
10.11.2019 04:00:00 3,2 2,4 - - 0,0
10.11.2019 03:00:00 2,7 1,6 - - 0,0
10.11.2019 02:00:00 4,5 1,8 - - 0,0
10.11.2019 01:00:00 5,6 2,9 - - 0,0
10.11.2019 00:00:00 5,6 2,8 - - 0,0
09.11.2019 23:00:00 5,4 3,0 - - 0,0
09.11.2019 22:00:00 5,0 2,7 - - 0,0
09.11.2019 21:00:00 4,2 2,5 - - 0,0
09.11.2019 20:00:00 3,0 2,5 - - 0,0
09.11.2019 19:00:00 2,3 1,6 - - 0,0
09.11.2019 18:00:00 2,9 1,6 - - 0,0
09.11.2019 17:00:00 4,1 3,0 - - 0,0
09.11.2019 16:00:00 5,4 3,8 - - 0,0
09.11.2019 15:00:00 6,2 3,7 - - 0,0
09.11.2019 14:00:00 7,7 1,8 - - 0,0
09.11.2019 13:00:00 7,7 3,4 - - 0,0
09.11.2019 12:00:00 6,2 3,8 - - 0,0
09.11.2019 11:00:00 5,6 3,2 - - 0,0
09.11.2019 10:00:00 4,1 3,3 - - 0,0
09.11.2019 09:00:00 1,3 1,1 8,2 11,0 0,0
09.11.2019 08:00:00 -0,8 -1,0 - - 0,0
09.11.2019 07:00:00 -0,8 -1,0 - - 0,0
09.11.2019 06:00:00 -0,4 -0,7 - - 0,0
09.11.2019 05:00:00 -0,1 -0,4 - - 0,0
09.11.2019 04:00:00 0,8 0,5 - - 0,0
09.11.2019 03:00:00 1,3 1,1 - - 0,0
09.11.2019 02:00:00 0,3 -0,1 - - 0,0
09.11.2019 01:00:00 0,9 0,3 - - 0,0
09.11.2019 00:00:00 2,7 2,0 - - 0,0
08.11.2019 23:00:00 3,3 2,5 - - 0,0
08.11.2019 22:00:00 4,5 3,5 - - 0,0
08.11.2019 21:00:00 5,5 4,4 - - 0,2
08.11.2019 20:00:00 5,8 5,1 - - 0,2
08.11.2019 19:00:00 6,3 5,6 - - 0,4
08.11.2019 18:00:00 5,9 5,1 - - 0,0
08.11.2019 17:00:00 6,7 5,8 - - 0,0
08.11.2019 16:00:00 7,3 6,1 - - 0,0
08.11.2019 15:00:00 8,3 6,0 - - 0,0
08.11.2019 14:00:00 8,6 6,4 - - 0,0
08.11.2019 13:00:00 8,8 8,3 - - 0,0
08.11.2019 12:00:00 7,3 7,2 - - 0,0
08.11.2019 11:00:00 4,2 4,1 - - 1,0
08.11.2019 10:00:00 2,6 2,5 - - 1,6
08.11.2019 09:00:00 0,9 0,8 8,7 11,0 0,0
08.11.2019 08:00:00 -0,7 -0,9 - - 0,0
08.11.2019 07:00:00 -1,8 -2,2 - - 0,0
08.11.2019 06:00:00 -2,5 -3,0 - - 0,0
08.11.2019 05:00:00 -2,2 -2,6 - - 0,0
08.11.2019 04:00:00 -2,0 -2,4 - - 0,0
08.11.2019 03:00:00 -1,9 -2,3 - - 0,0
08.11.2019 02:00:00 -1,6 -2,0 - - 0,0
08.11.2019 01:00:00 -1,3 -1,7 - - 0,0
08.11.2019 00:00:00 -0,8 -1,2 - - 0,0
07.11.2019 23:00:00 -0,3 -0,7 - - 0,0
07.11.2019 22:00:00 0,6 0,1 - - 0,0
07.11.2019 21:00:00 1,7 1,1 - - 0,0
07.11.2019 20:00:00 2,7 1,6 - - 0,2
07.11.2019 19:00:00 5,5 3,7 - - 0,0
07.11.2019 18:00:00 6,4 4,4 - - 0,0
07.11.2019 17:00:00 7,2 5,0 - - 0,0
07.11.2019 16:00:00 8,0 5,8 - - 0,0
07.11.2019 15:00:00 8,5 6,3 - - 0,0
07.11.2019 14:00:00 8,0 6,7 - - 0,0
07.11.2019 13:00:00 7,6 6,5 - - 0,0
07.11.2019 12:00:00 7,5 6,2 - - 0,0
07.11.2019 11:00:00 7,7 6,9 - - 0,2
07.11.2019 10:00:00 7,7 7,0 - - 0,8
07.11.2019 09:00:00 8,0 7,3 9,5 11,2 0,6
07.11.2019 08:00:00 8,4 7,5 - - 1,0
07.11.2019 07:00:00 8,6 7,7 - - 0,0
07.11.2019 06:00:00 7,9 7,4 - - 0,2
07.11.2019 05:00:00 7,4 6,5 - - 0,4
07.11.2019 04:00:00 8,0 5,1 - - 0,0
07.11.2019 03:00:00 7,4 4,3 - - 0,0
07.11.2019 02:00:00 6,7 4,3 - - 0,0
07.11.2019 01:00:00 6,3 4,5 - - 0,0
07.11.2019 00:00:00 5,5 4,5 - - 0,0
06.11.2019 23:00:00 5,1 4,2 - - 0,0
06.11.2019 22:00:00 5,1 4,2 - - 0,0
06.11.2019 21:00:00 5,3 4,3 - - 0,2
06.11.2019 20:00:00 5,1 4,3 - - 0,0
06.11.2019 19:00:00 4,5 3,8 - - 0,0
06.11.2019 18:00:00 4,5 3,6 - - 0,0
06.11.2019 17:00:00 5,3 3,7 - - 0,0
06.11.2019 16:00:00 7,3 4,3 - - 0,0
06.11.2019 15:00:00 8,3 3,3 - - 0,0
06.11.2019 14:00:00 8,6 1,6 - - 0,0
06.11.2019 13:00:00 9,4 4,3 - - 0,0
06.11.2019 12:00:00 7,7 3,8 - - 0,0
06.11.2019 11:00:00 7,0 4,2 - - 0,0
06.11.2019 10:00:00 6,0 4,6 - - 0,0
06.11.2019 09:00:00 4,8 4,5 9,5 11,2 0,0
06.11.2019 08:00:00 3,8 3,5 - - 0,0
06.11.2019 07:00:00 3,8 3,5 - - 0,0
06.11.2019 06:00:00 4,0 3,8 - - 0,0
06.11.2019 05:00:00 4,5 4,3 - - 0,0

tt = temperature
td = dewpoint
tt -20cm = temperature -20cm
tt -100cm = temperature -100cm
rr = precipitation

Next stations